Albrook, Panama

11:49 AM EST on January 30, 2015 (GMT -0500)
Villa de las Fuentes 2 | Change Station
CLOSE
Current Station
Personal Weather Station
Location: Panama, PANAMA
Elevation: 167 ft
Nearby Weather Stations

Elev 167 ft 9.01 °N, 79.54 °W | Updated 2 seconds ago

Partly Cloudy
Partly Cloudy
92.5 °F
Feels Like 97 °F
N
1.3
Wind Variable Wind from WSW
Gusts 2.5 mph

Today
High -- | Low -- °F
--% Chance of Precip.
Yesterday
High -- | Low -- °F
Precip. -- in
6:39 AM 6:23 PM
Waxing Gibbous, 83% visible
Pressure 29.89 in
Visibility 6.2 miles
Clouds Few 2000 ft
Heat Index 97 °F
Dew Point 69 °F
Humidity 46%
Rainfall 0.00 in
Snow Depth Not available.
UV 7.0 out of 12
Pollen Not available.
Air Quality Not available.
Flu Activity Not available.
METAR MPMG 301600Z 32015KT 9999 FEW020 31/21 Q1012 NOSIG

More Conditions Fewer Conditions

Pressure 29.89 in
Visibility 6.2 miles
Clouds Few 2000 ft
Heat Index 97 °F
Dew Point 69 °F
Humidity 46%
Rainfall 0.00 in
Snow Depth Not available.
UV 7.0 out of 12
Pollen Not available.
Air Quality Not available.
Flu Activity Not available.
METAR MPMG 301600Z 32015KT 9999 FEW020 31/21 Q1012 NOSIG

More Conditions Fewer Conditions

10-Day Weather Forecast

Almanac

Astronomy

Jan. 30, 2015 Rise Set
Actual Time
Civil Twilight
Nautical Twilight
Astronomical Twilight
Moon
Length of Visible Light
Length of Day
Tomorrow will be .
, % of the Moon is Illuminated

Today's Extremes

Country Highs Country Lows

Community

WunderPhotos

Upload Photos

1,791,809 photos uploaded!

WunderBlogs® & News

Nearby

Air Quality

  Air Quality AQ Index Pollutant
Not available.

Snow Depth

Station Depth Elevation

Earthquake Activity

City Distance Mag. Time & Date
Minimum magnitude displayed is 2.5.

Coastal Water Temperatures

Place Temperature

Nearby Weather Stations